Ana Sayfa
METAR-TAF:

METAR-TAF

Havaalanları :

Taunton Municipal Airport (King Field)

Taunton, Massachusetts, Amerika Birleşik Devletleri

Enlem: 41-52-32N, Boylam: 071-01-16W, yükseklik: 13 m

Güncel hava durumu gözlemi

Rapor saat 23:52 UTC de 47 dakika önce yapıldı.
Rüzgar batı/güneybatıdan 15 kt ve 24 kt'a kadar ani rüzgarlar
Sıcaklık 3°C
Nem 44%
Basınç 1000 hPa
Görüş mesafesi: 16.1 km
5500 ft yükseklikte çok bulutlu

METAR: KTAN 272352Z AUTO 25015G24KT 10SM OVC055 03/M08 A2954 RMK AO2 SLP003 T00331083 10089 20033 51044

Saat: 19:39 (00:39 UTC)


TAF: eksik

4.000'den fazla havaalanı için hava durumu gözlemleri ve tahminleri (METAR ve TAF raporları).

Kullanılabilir istasyonlar harita üzerinde sarı ve kırmızı noktalarla gösterilir.

İstasyonun adını görmek için fareyi noktanın üzerinde gezdirin.

Sonrasında hava gözlem ve tahminlerini görmek için tıklayın.

Haritayı değiştirmek için: yaklaştırmak için siyah artı işaretli yeşil düğmeye ve uzaklaştırmak için de eksi işaretli düğmeye hızla tıklayın; bitişik haritalar için yeşil okları kullanın.


METAR-TAF: